Time;durP1;ratioP1;P1;durP2;ratioP2;P2;SDS_P1;SDS_P2;PMS_P1;PMS_P2;Temp;Humidity;BMP_temperature;BMP_pressure;BME280_temperature;BME280_humidity;BME280_pressure;Samples;Min_cycle;Max_cycle;Signal;HPM_P1;HPM_P2
2021/12/16 00:08:39;;;;;;;21.57;18.47;;;;;;;-0.83;86.44;93627.63;5083338;28;20227;-75
2021/12/16 00:30:09;;;;;;;22.30;19.17;;;;;;;-0.95;85.87;93645.25;5089088;28;20195;-75
2021/12/16 00:35:05;;;;;;;24.43;18.27;;;;;;;-1.17;86.07;93610.41;5087488;28;20193;-75
2021/12/16 00:37:31;;;;;;;20.57;17.90;;;;;;;-0.97;86.93;93646.44;5091002;28;20228;-75
2021/12/16 00:39:56;;;;;;;23.67;19.13;;;;;;;-1.05;85.87;93641.44;5092724;28;20188;-75
2021/12/16 00:45:30;;;;;;;21.83;17.63;;;;;;;-1.02;86.15;93633.38;5092373;28;20230;-76
2021/12/16 00:48:00;;;;;;;22.80;18.77;;;;;;;-1.20;86.21;93627.91;5082181;28;20263;-74
2021/12/16 00:55:48;;;;;;;19.47;16.80;;;;;;;-1.05;85.98;93646.56;5071004;28;20230;-75
2021/12/16 00:58:17;;;;;;;21.33;18.27;;;;;;;-1.11;86.26;93632.72;5071109;28;20225;-75
2021/12/16 01:00:56;;;;;;;20.60;17.00;;;;;;;-1.27;86.04;93620.16;5071597;28;20215;-75
2021/12/16 01:03:37;;;;;;;21.87;18.23;;;;;;;-1.06;85.40;93653.44;5084813;28;20224;-75
2021/12/16 01:51:57;;;;;;;17.97;15.97;;;;;;;-1.35;84.11;93546.00;5071425;28;20257;-75
2021/12/16 01:54:48;;;;;;;17.73;16.07;;;;;;;-0.84;83.91;93620.94;5090978;28;20209;-75
2021/12/16 01:57:30;;;;;;;18.37;15.80;;;;;;;-0.72;84.51;93611.75;5088922;28;20224;-75
2021/12/16 02:00:06;;;;;;;17.07;15.27;;;;;;;-0.81;84.58;93610.31;5091729;28;20200;-75
2021/12/16 02:02:43;;;;;;;17.13;14.30;;;;;;;-0.77;84.70;93616.63;5090357;28;20217;-75
2021/12/16 02:05:33;;;;;;;18.07;16.00;;;;;;;-0.95;84.08;93611.19;5090676;28;20192;-75
2021/12/16 02:10:43;;;;;;;18.60;16.90;;;;;;;-0.98;84.84;93604.63;5071007;28;20204;-75
2021/12/16 02:35:33;;;;;;;19.03;17.03;;;;;;;-0.97;86.44;93613.94;5058900;28;20297;-75
2021/12/16 02:38:00;;;;;;;17.70;15.93;;;;;;;-1.00;86.68;93611.72;5089898;28;20274;-75
2021/12/16 02:40:26;;;;;;;18.77;16.97;;;;;;;-1.15;86.93;93600.75;5091287;28;20694;-75
2021/12/16 02:50:48;;;;;;;18.60;16.70;;;;;;;-0.94;85.21;93615.31;5089800;28;20204;-75
2021/12/16 02:53:14;;;;;;;18.60;15.93;;;;;;;-1.31;85.46;93570.28;5088472;28;20221;-75
2021/12/16 02:55:39;;;;;;;18.70;16.70;;;;;;;-1.27;85.62;93619.34;5090232;28;20177;-76
2021/12/16 02:58:05;;;;;;;19.10;16.90;;;;;;;-1.11;85.63;93619.91;5088444;28;20225;-75
2021/12/16 03:00:40;;;;;;;16.83;15.10;;;;;;;-1.52;85.59;93562.59;5089105;28;20197;-75
2021/12/16 03:03:06;;;;;;;17.00;15.30;;;;;;;-1.27;86.03;93611.66;5088474;28;20223;-75
2021/12/16 03:05:32;;;;;;;17.50;15.73;;;;;;;-1.22;86.74;93619.59;5089489;28;20180;-75
2021/12/16 03:07:58;;;;;;;18.03;16.17;;;;;;;-1.26;86.29;93620.94;5078264;28;20240;-75
2021/12/16 03:13:07;;;;;;;17.83;15.87;;;;;;;-1.32;86.75;93591.72;5067898;28;20217;-75
2021/12/16 03:20:49;;;;;;;18.23;16.60;;;;;;;-1.14;84.93;93619.47;5070193;28;20181;-75
2021/12/16 03:37:14;;;;;;;18.23;16.07;;;;;;;-0.58;84.78;93628.81;5069463;28;20248;-77
2021/12/16 03:39:56;;;;;;;20.07;17.97;;;;;;;-0.48;85.12;93621.56;5069478;28;20185;-78
2021/12/16 03:42:38;;;;;;;19.90;17.87;;;;;;;-0.38;84.66;93616.91;5073721;28;20258;-77
2021/12/16 03:46:25;;;;;;;18.47;16.57;;;;;;;-0.43;84.77;93625.19;5087810;28;20201;-77
2021/12/16 03:47:56;;;;;;;19.60;17.60;;;;;;;-0.47;85.22;93628.31;5088601;28;20224;-77
2021/12/16 03:50:22;;;;;;;17.50;16.03;;;;;;;-0.54;84.41;93617.19;5089474;28;20199;-77
2021/12/16 03:52:49;;;;;;;18.63;16.67;;;;;;;-0.56;84.54;93585.84;5089162;28;20306;-77
2021/12/16 03:55:16;;;;;;;19.57;17.63;;;;;;;-0.35;84.54;93622.47;5088581;28;20181;-77
2021/12/16 03:57:43;;;;;;;18.00;16.37;;;;;;;-0.28;84.94;93622.53;5079840;28;20229;-77
2021/12/16 04:00:16;;;;;;;18.40;16.60;;;;;;;-0.32;85.13;93622.09;5069059;28;20178;-77
2021/12/16 04:02:43;;;;;;;20.20;18.07;;;;;;;-0.34;84.98;93620.69;5069005;28;20229;-76
2021/12/16 04:05:10;;;;;;;18.17;16.43;;;;;;;-0.20;85.13;93619.78;5067468;28;20219;-77
2021/12/16 04:07:38;;;;;;;18.57;16.63;;;;;;;-0.26;84.88;93628.22;5069432;28;20225;-78
2021/12/16 04:10:09;;;;;;;18.47;16.67;;;;;;;-0.40;85.18;93609.41;5071888;28;20185;-77
2021/12/16 04:12:35;;;;;;;18.63;16.67;;;;;;;-0.73;85.49;93557.13;5072031;28;20210;-76
2021/12/16 04:15:04;;;;;;;19.47;16.77;;;;;;;-0.61;84.62;93549.72;5072562;28;20236;-78
2021/12/16 04:17:34;;;;;;;18.37;16.47;;;;;;;-0.27;85.24;93606.13;5070221;28;20244;-76
2021/12/16 04:20:01;;;;;;;18.40;16.67;;;;;;;-0.51;85.41;93575.78;5073360;28;20188;-77
2021/12/16 04:22:33;;;;;;;18.90;16.93;;;;;;;-0.65;85.14;93574.13;5078456;28;20288;-76
2021/12/16 04:25:02;;;;;;;18.53;16.73;;;;;;;-0.59;85.17;93563.16;5092855;28;20185;-77
2021/12/16 04:27:28;;;;;;;19.17;17.33;;;;;;;-0.33;85.07;93614.59;5090697;28;20232;-77
2021/12/16 04:29:53;;;;;;;18.80;17.10;;;;;;;-0.62;84.64;93558.38;5092331;28;20204;-76
2021/12/16 04:32:19;;;;;;;18.77;16.93;;;;;;;-0.31;85.70;93597.22;5092074;28;20229;-77
2021/12/16 04:34:45;;;;;;;17.37;15.77;;;;;;;-0.49;85.42;93599.47;5092492;28;20209;-77
2021/12/16 04:37:11;;;;;;;18.30;16.60;;;;;;;-0.39;84.96;93585.34;5092738;28;20246;-76
2021/12/16 04:39:39;;;;;;;18.40;16.73;;;;;;;-0.66;84.84;93531.53;5091310;28;20220;-76
2021/12/16 04:42:06;;;;;;;18.20;16.60;;;;;;;-0.30;85.32;93591.13;5093092;28;20224;-77
2021/12/16 04:44:32;;;;;;;18.07;16.47;;;;;;;-0.36;85.05;93569.56;5090005;28;20191;-74
2021/12/16 04:46:59;;;;;;;17.63;15.93;;;;;;;-0.42;85.39;93564.44;5092386;28;20224;-74
2021/12/16 04:49:24;;;;;;;18.27;16.43;;;;;;;-0.29;85.55;93587.56;5092747;28;20216;-74
2021/12/16 04:51:54;;;;;;;17.30;15.77;;;;;;;-0.38;86.06;93581.81;5091451;28;20204;-74
2021/12/16 04:54:23;;;;;;;19.00;17.13;;;;;;;-0.46;86.19;93571.69;5089879;28;20248;-75
2021/12/16 04:56:53;;;;;;;19.13;17.17;;;;;;;-0.62;87.48;93532.72;5089375;28;20207;-74
2021/12/16 04:59:20;;;;;;;18.93;17.10;;;;;;;-0.29;86.11;93592.69;5089740;28;20234;-75
2021/12/16 05:01:51;;;;;;;18.57;16.90;;;;;;;-0.18;86.30;93599.88;5089346;28;20185;-73
2021/12/16 05:04:16;;;;;;;19.10;16.63;;;;;;;-0.32;86.31;93590.50;5088976;28;20243;-73
2021/12/16 05:06:42;;;;;;;18.10;16.30;;;;;;;-0.37;86.45;93587.72;5090064;28;20177;-73
2021/12/16 05:09:10;;;;;;;18.87;17.07;;;;;;;-0.37;86.31;93570.56;5087038;28;20234;-73
2021/12/16 05:11:36;;;;;;;17.60;15.90;;;;;;;-0.28;86.39;93589.16;5088208;28;20216;-77
2021/12/16 05:14:06;;;;;;;17.67;15.90;;;;;;;-0.34;86.44;93597.59;5088875;28;20239;-75
2021/12/16 05:16:32;;;;;;;18.73;16.53;;;;;;;-0.33;87.38;93591.50;5085866;28;20219;-73
2021/12/16 05:18:58;;;;;;;20.67;17.63;;;;;;;-0.52;87.80;93571.66;5089832;28;20209;-75
2021/12/16 05:24:27;;;;;;;20.40;18.27;;;;;;;-0.46;87.48;93599.09;5087922;28;20223;-76
2021/12/16 05:26:59;;;;;;;18.80;16.27;;;;;;;-0.42;87.35;93585.72;5090168;28;20196;-76
2021/12/16 05:29:25;;;;;;;20.00;17.93;;;;;;;-0.28;88.48;93576.34;5091455;28;20205;-75
2021/12/16 05:31:52;;;;;;;20.93;18.80;;;;;;;-0.23;87.90;93592.75;5088641;28;20193;-75
2021/12/16 05:34:17;;;;;;;19.57;17.57;;;;;;;-0.65;87.26;93564.66;5089015;28;20199;-75
2021/12/16 05:36:44;;;;;;;18.10;16.30;;;;;;;-0.52;87.89;93585.28;5090530;28;20216;-76
2021/12/16 05:39:11;;;;;;;19.93;17.90;;;;;;;-0.44;88.08;93599.72;5090076;28;20223;-77
2021/12/16 05:41:37;;;;;;;19.97;18.07;;;;;;;-0.48;87.98;93594.16;5091126;28;20210;-77
2021/12/16 05:44:03;;;;;;;18.83;17.03;;;;;;;-0.55;87.71;93589.97;5120732;28;20242;-77
2021/12/16 05:46:29;;;;;;;22.27;19.07;;;;;;;-0.48;87.84;93595.94;5090383;28;20208;-77
2021/12/16 05:48:57;;;;;;;18.20;16.20;;;;;;;-0.48;88.63;93580.53;5088407;28;20232;-76
2021/12/16 05:51:35;;;;;;;21.97;17.87;;;;;;;-0.64;88.39;93581.63;5089636;28;20188;-77
2021/12/16 05:54:03;;;;;;;19.70;17.80;;;;;;;-0.53;88.20;93572.66;5086178;28;20319;-77
2021/12/16 05:56:29;;;;;;;19.40;17.40;;;;;;;-0.45;87.74;93601.47;5086266;28;20198;-78
2021/12/16 05:58:55;;;;;;;19.43;17.43;;;;;;;-0.46;88.14;93593.97;5087457;28;20232;-78
2021/12/16 06:01:26;;;;;;;20.90;16.83;;;;;;;-0.50;88.52;93592.78;5087270;28;20215;-76
2021/12/16 06:03:52;;;;;;;18.40;16.20;;;;;;;-0.39;87.36;93594.81;5087015;28;20227;-75
2021/12/16 06:06:18;;;;;;;20.97;15.40;;;;;;;-0.34;86.63;93597.59;5086598;28;20188;-74
2021/12/16 06:08:45;;;;;;;17.57;15.77;;;;;;;-0.34;86.80;93592.47;5083732;28;20229;-74
2021/12/16 06:13:45;;;;;;;21.67;18.33;;;;;;;-0.36;87.46;93597.78;5087149;28;20273;-75
2021/12/16 06:27:20;;;;;;;19.80;17.80;;;;;;;-0.26;85.72;93571.78;5087780;28;20258;-78
2021/12/16 06:29:48;;;;;;;19.37;17.33;;;;;;;-0.21;85.71;93607.94;5087770;28;20204;-78
2021/12/16 06:32:14;;;;;;;22.17;19.87;;;;;;;-0.28;85.40;93578.91;5087161;28;20332;-76
2021/12/16 06:34:41;;;;;;;19.47;17.37;;;;;;;-0.23;85.77;93591.94;5087176;28;20243;-76
2021/12/16 06:37:07;;;;;;;18.43;16.73;;;;;;;-0.27;86.32;93586.41;5087865;28;20224;-75
2021/12/16 06:39:33;;;;;;;19.23;17.23;;;;;;;-0.14;86.54;93599.28;5087747;28;20224;-76
2021/12/16 06:41:59;;;;;;;18.27;16.70;;;;;;;-0.24;84.96;93595.50;5084776;28;20192;-77
2021/12/16 06:44:34;;;;;;;18.67;16.20;;;;;;;-0.28;85.57;93587.38;5085381;28;20181;-74
2021/12/16 06:47:06;;;;;;;17.57;15.93;;;;;;;-0.22;84.11;93588.41;5084788;28;20201;-78
2021/12/16 06:49:33;;;;;;;16.47;14.90;;;;;;;-0.33;84.32;93581.25;5087325;28;20223;-76
2021/12/16 06:52:03;;;;;;;17.80;16.13;;;;;;;-0.31;84.74;93599.78;5083660;28;20201;-83
2021/12/16 06:54:35;;;;;;;18.60;16.80;;;;;;;-0.41;84.10;93594.22;5085307;28;20227;-81
2021/12/16 06:57:23;;;;;;;19.63;17.80;;;;;;;-0.23;87.00;93604.75;5087087;28;20693;-80
2021/12/16 06:59:56;;;;;;;19.60;17.40;;;;;;;-0.30;86.01;93602.19;5086823;28;20189;-81
2021/12/16 07:05:08;;;;;;;22.07;20.13;;;;;;;-0.36;83.17;93572.13;5085339;28;20174;-79
2021/12/16 07:07:33;;;;;;;21.27;19.10;;;;;;;-0.09;83.43;93585.88;5084796;28;20259;-82
2021/12/16 07:09:59;;;;;;;20.83;18.83;;;;;;;-0.24;82.82;93577.53;5086981;28;20185;-76
2021/12/16 07:12:35;;;;;;;20.07;17.83;;;;;;;0.14;82.68;93612.06;5084182;28;20238;-77
2021/12/16 07:15:07;;;;;;;22.40;20.27;;;;;;;0.15;81.98;93590.56;5117306;28;20220;-77
2021/12/16 07:17:33;;;;;;;23.50;18.57;;;;;;;0.05;81.53;93600.38;5085212;28;20232;-78
2021/12/16 07:19:58;;;;;;;18.43;16.73;;;;;;;0.03;81.98;93595.44;5086954;28;20238;-77
2021/12/16 07:22:23;;;;;;;19.00;17.03;;;;;;;-0.03;81.91;93595.38;5088155;28;21272;-78
2021/12/16 07:24:49;;;;;;;20.43;18.33;;;;;;;0.08;81.65;93607.69;5086080;28;20185;-79
2021/12/16 07:27:14;;;;;;;18.47;16.60;;;;;;;0.27;81.56;93591.56;5089856;28;20224;-78
2021/12/16 07:29:40;;;;;;;18.70;16.80;;;;;;;0.18;81.62;93585.03;5088656;28;20242;-76
2021/12/16 07:32:06;;;;;;;20.53;18.37;;;;;;;0.54;81.07;93608.66;5087516;28;20251;-76
2021/12/16 07:34:31;;;;;;;19.87;17.97;;;;;;;0.65;80.45;93590.13;5087776;28;20181;-76
2021/12/16 07:36:59;;;;;;;19.23;17.43;;;;;;;0.79;79.92;93602.00;5085166;28;20185;-79
2021/12/16 07:39:30;;;;;;;22.07;19.13;;;;;;;0.45;79.46;93591.81;5099776;28;20221;-78
2021/12/16 07:41:56;;;;;;;19.80;17.80;;;;;;;0.72;79.41;93584.97;5067244;28;20253;-76
2021/12/16 07:44:23;;;;;;;16.70;15.10;;;;;;;0.90;77.55;93611.69;5069593;28;20205;-78
2021/12/16 07:46:54;;;;;;;19.27;16.60;;;;;;;0.89;78.29;93596.47;5069492;28;20205;-77
2021/12/16 07:49:24;;;;;;;17.83;16.07;;;;;;;0.87;77.54;93609.50;5091132;28;20216;-75
2021/12/16 07:51:50;;;;;;;15.37;14.17;;;;;;;0.77;77.05;93611.69;5091452;28;20207;-75
2021/12/16 07:54:17;;;;;;;14.47;13.10;;;;;;;0.50;77.91;93602.31;5091114;28;20264;-76
2021/12/16 07:56:45;;;;;;;14.47;13.27;;;;;;;0.50;77.68;93594.59;5092685;28;20187;-77
2021/12/16 07:59:10;;;;;;;17.13;15.53;;;;;;;0.58;78.82;93598.78;5092179;28;20256;-76
2021/12/16 08:01:38;;;;;;;17.57;15.97;;;;;;;0.67;77.87;93613.06;5090649;28;20188;-78
2021/12/16 08:04:05;;;;;;;19.60;17.70;;;;;;;0.31;77.83;93576.59;5090409;28;20212;-78
2021/12/16 08:06:31;;;;;;;16.37;15.17;;;;;;;0.84;76.68;93627.91;5092632;28;20193;-75
2021/12/16 08:09:03;;;;;;;16.17;14.93;;;;;;;1.05;76.95;93637.22;5090702;28;20303;-76
2021/12/16 08:11:31;;;;;;;13.87;12.83;;;;;;;0.87;75.63;93622.34;5092449;28;20188;-76
2021/12/16 08:13:57;;;;;;;13.67;12.70;;;;;;;0.92;76.20;93616.66;5090551;28;20307;-77
2021/12/16 08:16:23;;;;;;;12.53;11.63;;;;;;;0.78;75.99;93597.84;5091793;28;20184;-76
2021/12/16 08:18:50;;;;;;;14.27;13.37;;;;;;;0.71;75.70;93607.31;5091450;28;20228;-76
2021/12/16 08:21:15;;;;;;;13.33;12.33;;;;;;;0.65;76.40;93599.59;5091200;28;20195;-76
2021/12/16 08:23:41;;;;;;;15.67;14.57;;;;;;;0.70;76.56;93598.00;5123106;28;20224;-77
2021/12/16 08:26:07;;;;;;;13.97;12.80;;;;;;;0.73;76.79;93607.13;5091316;28;20185;-77
2021/12/16 08:28:33;;;;;;;14.23;13.27;;;;;;;0.66;76.45;93601.16;5091538;28;20232;-77
2021/12/16 08:30:58;;;;;;;13.17;12.37;;;;;;;0.85;76.49;93616.66;5090045;28;20605;-77
2021/12/16 08:33:26;;;;;;;13.10;12.20;;;;;;;0.91;76.16;93615.84;5088058;28;20224;-77
2021/12/16 08:35:53;;;;;;;14.40;13.23;;;;;;;0.91;76.41;93603.00;5091393;28;20184;-77
2021/12/16 08:38:23;;;;;;;13.90;12.83;;;;;;;1.14;76.55;93600.84;5090960;28;20232;-77
2021/12/16 08:40:52;;;;;;;14.50;13.50;;;;;;;1.41;76.14;93611.94;5090856;28;20188;-76
2021/12/16 08:43:22;;;;;;;12.67;11.83;;;;;;;1.54;74.03;93614.50;5089301;28;20280;-77
2021/12/16 08:45:48;;;;;;;13.30;12.50;;;;;;;1.25;73.73;93617.47;5090600;28;20201;-77
2021/12/16 08:48:14;;;;;;;13.07;12.37;;;;;;;1.39;73.38;93598.47;5076762;28;20236;-77
2021/12/16 08:50:46;;;;;;;13.00;12.20;;;;;;;1.32;73.74;93592.56;5071787;28;20188;-77
2021/12/16 08:53:12;;;;;;;13.37;12.57;;;;;;;1.27;73.94;93588.00;5068912;28;20231;-77
2021/12/16 08:55:40;;;;;;;13.67;12.77;;;;;;;1.53;75.50;93603.41;5068693;28;20244;-78
2021/12/16 08:58:06;;;;;;;12.17;11.27;;;;;;;1.46;73.45;93583.84;5079850;28;20242;-77
2021/12/16 09:00:37;;;;;;;13.47;12.57;;;;;;;1.90;73.94;93603.75;5092360;28;20216;-78
2021/12/16 09:03:02;;;;;;;14.47;13.43;;;;;;;1.89;72.64;93586.72;5089575;28;20247;-78
2021/12/16 09:05:29;;;;;;;12.63;11.73;;;;;;;1.92;72.98;93594.03;5091304;28;20192;-79
2021/12/16 09:07:55;;;;;;;12.83;12.03;;;;;;;1.91;72.24;93595.84;5090617;28;20228;-78
2021/12/16 09:10:27;;;;;;;14.20;13.27;;;;;;;1.78;73.25;93577.03;5090910;28;20188;-76
2021/12/16 09:15:24;;;;;;;12.17;11.20;;;;;;;1.59;72.07;93556.31;5069059;28;20248;-75
2021/12/16 09:17:52;;;;;;;12.83;11.87;;;;;;;1.88;73.33;93582.56;5069972;28;20222;-77
2021/12/16 09:20:18;;;;;;;13.70;12.80;;;;;;;2.01;71.44;93574.81;5069837;28;20186;-75
2021/12/16 09:22:44;;;;;;;14.20;13.20;;;;;;;1.87;72.12;93575.84;5077887;28;20307;-76
2021/12/16 09:25:10;;;;;;;13.37;12.47;;;;;;;1.68;72.37;93552.50;5091396;28;20203;-77
2021/12/16 09:27:35;;;;;;;12.97;11.93;;;;;;;1.58;71.84;93559.88;5090528;28;20259;-77
2021/12/16 09:30:05;;;;;;;20.13;19.03;;;;;;;1.65;72.71;93570.13;5090295;28;20189;-77
2021/12/16 09:32:32;;;;;;;12.13;11.33;;;;;;;1.67;72.18;93582.81;5090079;28;20220;-76
2021/12/16 09:34:58;;;;;;;13.37;12.37;;;;;;;1.57;72.70;93568.56;5089437;28;20224;-76
2021/12/16 09:37:24;;;;;;;13.40;12.63;;;;;;;1.61;73.01;93572.34;5088931;28;20236;-74
2021/12/16 09:39:49;;;;;;;13.63;12.77;;;;;;;1.88;71.61;93569.69;5090036;28;20193;-74
2021/12/16 09:42:15;;;;;;;11.53;10.93;;;;;;;2.23;72.67;93568.38;5084966;28;20232;-76
2021/12/16 09:44:42;;;;;;;13.93;13.13;;;;;;;1.80;69.93;93533.88;5069699;28;20197;-78
2021/12/16 09:47:12;;;;;;;12.17;11.47;;;;;;;1.96;70.32;93570.25;5073365;28;20262;-77
2021/12/16 09:49:38;;;;;;;14.77;13.77;;;;;;;1.71;71.32;93561.63;5089377;28;20231;-76
2021/12/16 09:52:07;;;;;;;13.93;12.93;;;;;;;1.97;71.49;93569.28;5091812;28;20323;-78
2021/12/16 09:54:34;;;;;;;14.37;13.17;;;;;;;2.05;72.60;93547.66;5089402;28;21000;-77
2021/12/16 09:57:01;;;;;;;13.40;12.60;;;;;;;1.85;70.58;93564.97;5090146;28;20253;-77
2021/12/16 09:59:29;;;;;;;12.60;11.87;;;;;;;1.96;70.43;93557.38;5088118;28;20220;-77
2021/12/16 10:02:00;;;;;;;13.00;12.17;;;;;;;2.20;69.92;93555.91;5086713;28;20192;-76
2021/12/16 10:04:31;;;;;;;13.47;12.70;;;;;;;1.82;70.52;93506.16;5069687;28;20190;-75
2021/12/16 10:06:59;;;;;;;12.13;11.27;;;;;;;2.23;70.16;93558.06;5069852;28;20316;-76
2021/12/16 10:09:27;;;;;;;13.90;13.03;;;;;;;1.99;70.34;93548.47;5089909;28;20204;-76
2021/12/16 10:11:54;;;;;;;13.07;12.07;;;;;;;2.18;70.39;93547.63;5090140;28;20189;-76
2021/12/16 10:19:39;;;;;;;13.23;12.27;;;;;;;1.88;71.63;93536.22;5090144;28;20211;-78
2021/12/16 10:22:26;;;;;;;13.40;12.40;;;;;;;1.94;72.42;93527.69;5089771;28;20228;-75
2021/12/16 10:24:56;;;;;;;13.20;12.47;;;;;;;1.82;72.52;93526.75;5089668;28;20219;-77
2021/12/16 10:27:27;;;;;;;11.63;10.93;;;;;;;1.87;72.40;93494.25;5089542;28;20239;-77
2021/12/16 10:30:00;;;;;;;13.80;12.97;;;;;;;2.08;70.92;93513.78;5090166;28;20208;-77
2021/12/16 10:32:48;;;;;;;12.43;11.73;;;;;;;1.92;72.31;93497.00;5088354;28;20239;-77
2021/12/16 10:35:30;;;;;;;12.63;11.93;;;;;;;1.95;71.72;93477.78;5088613;28;20961;-76
2021/12/16 10:37:59;;;;;;;14.13;13.27;;;;;;;2.07;70.17;93505.25;5089446;28;20290;-77
2021/12/16 10:40:36;;;;;;;12.20;11.60;;;;;;;2.05;70.77;93511.59;5089918;28;20212;-77
2021/12/16 10:43:10;;;;;;;13.77;13.03;;;;;;;2.03;70.39;93483.50;5075457;28;20892;-78
2021/12/16 10:45:48;;;;;;;12.43;11.73;;;;;;;2.10;70.59;93498.91;5069816;28;20192;-78
2021/12/16 10:48:25;;;;;;;11.73;11.03;;;;;;;2.08;71.20;93481.09;5098852;28;21810;-76
2021/12/16 10:51:05;;;;;;;12.63;11.53;;;;;;;2.14;71.82;93487.19;5067466;28;20207;-77
2021/12/16 10:54:00;;;;;;;13.00;12.03;;;;;;;2.20;71.33;93494.91;5068743;28;20235;-77
2021/12/16 10:56:37;;;;;;;12.37;11.57;;;;;;;2.34;70.38;93496.41;5068732;28;20193;-81
2021/12/16 10:59:11;;;;;;;12.27;11.47;;;;;;;2.27;71.93;93489.72;5066558;28;20224;-76
2021/12/16 11:02:08;;;;;;;12.97;12.17;;;;;;;2.08;71.82;93485.44;5069786;28;20191;-77
2021/12/16 11:04:41;;;;;;;11.47;10.87;;;;;;;1.79;71.76;93501.41;5064306;28;20825;-77
2021/12/16 11:07:21;;;;;;;14.07;13.07;;;;;;;1.99;71.73;93491.81;5068950;28;20228;-77
2021/12/16 11:09:51;;;;;;;13.87;13.00;;;;;;;1.89;71.47;93478.59;5068106;28;20228;-76
2021/12/16 11:12:24;;;;;;;12.33;11.63;;;;;;;1.83;72.46;93479.41;5068440;28;20225;-76
2021/12/16 11:15:08;;;;;;;13.00;12.27;;;;;;;1.93;71.99;93488.28;5068824;28;20251;-75
2021/12/16 11:18:05;;;;;;;12.73;11.93;;;;;;;1.91;72.49;93485.13;5068436;28;20221;-76
2021/12/16 11:20:40;;;;;;;12.90;12.00;;;;;;;2.06;71.58;93492.56;5069333;28;20197;-77
2021/12/16 11:23:16;;;;;;;13.30;12.30;;;;;;;1.97;71.55;93496.38;5068339;28;20283;-76
2021/12/16 11:26:13;;;;;;;13.23;12.23;;;;;;;1.66;74.36;93471.38;5066907;28;20806;-75
2021/12/16 11:28:56;;;;;;;12.87;12.03;;;;;;;1.64;74.75;93468.19;5074934;28;20228;-76
2021/12/16 11:31:26;;;;;;;12.43;11.63;;;;;;;1.61;76.53;93484.84;5089020;28;20192;-75
2021/12/16 11:33:57;;;;;;;13.93;13.03;;;;;;;1.50;77.04;93471.81;5088201;28;20224;-75
2021/12/16 11:36:24;;;;;;;13.70;12.70;;;;;;;1.39;77.46;93462.94;5088677;28;20173;-76
2021/12/16 11:38:59;;;;;;;14.30;13.10;;;;;;;1.37;77.93;93482.16;5088991;28;20263;-77
2021/12/16 11:41:26;;;;;;;13.57;12.57;;;;;;;1.56;77.04;93482.09;5089515;28;20195;-77
2021/12/16 11:43:55;;;;;;;12.93;12.03;;;;;;;1.52;77.46;93486.06;5070684;28;20709;-76
2021/12/16 11:46:28;;;;;;;14.27;13.27;;;;;;;1.37;78.03;93480.34;5068239;28;20201;-76
2021/12/16 11:48:56;;;;;;;13.37;12.47;;;;;;;1.61;76.14;93479.69;5068061;28;20229;-77
2021/12/16 11:51:39;;;;;;;15.63;14.50;;;;;;;1.54;75.13;93468.63;5068796;28;20257;-78
2021/12/16 11:54:17;;;;;;;14.53;13.40;;;;;;;1.71;74.61;93494.72;5067103;28;21412;-78
2021/12/16 11:56:45;;;;;;;14.57;13.43;;;;;;;1.45;74.12;93453.59;5068601;28;20219;-78
2021/12/16 11:59:11;;;;;;;13.37;12.37;;;;;;;1.67;75.37;93492.75;5065381;28;20224;-77
2021/12/16 12:01:39;;;;;;;14.07;13.17;;;;;;;1.70;75.85;93469.19;5067580;28;20231;-75
2021/12/16 12:04:08;;;;;;;13.30;12.40;;;;;;;1.64;76.13;93471.56;5066411;28;20235;-77
2021/12/16 12:06:36;;;;;;;13.33;12.33;;;;;;;1.63;76.96;93482.84;5064975;28;20243;-78
2021/12/16 12:09:06;;;;;;;13.73;12.83;;;;;;;1.68;75.11;93474.53;5068391;28;20229;-77
2021/12/16 12:11:35;;;;;;;14.30;13.00;;;;;;;2.02;74.49;93470.81;5068846;28;20178;-78
2021/12/16 12:14:05;;;;;;;13.67;12.43;;;;;;;1.70;75.99;93451.16;5066016;28;20236;-78
2021/12/16 12:16:38;;;;;;;15.27;14.27;;;;;;;1.48;76.08;93459.16;5068670;28;20252;-79
2021/12/16 12:19:21;;;;;;;14.70;13.67;;;;;;;1.36;74.86;93435.06;5067245;28;20210;-76
2021/12/16 12:21:57;;;;;;;13.50;12.60;;;;;;;1.80;74.98;93475.47;5065884;28;20217;-76
2021/12/16 12:24:32;;;;;;;14.20;13.30;;;;;;;1.76;75.95;93476.09;5099338;28;20577;-77
2021/12/16 12:27:01;;;;;;;14.10;13.03;;;;;;;1.85;75.65;93483.38;5066314;28;20228;-78
2021/12/16 12:29:32;;;;;;;15.03;13.97;;;;;;;1.73;76.40;93482.41;5069140;28;20724;-76
2021/12/16 12:32:05;;;;;;;13.27;12.27;;;;;;;1.85;75.74;93474.84;5072026;28;20197;-75
2021/12/16 12:34:32;;;;;;;13.93;12.93;;;;;;;1.87;74.81;93471.06;5070381;28;20201;-81
2021/12/16 12:37:00;;;;;;;14.93;13.93;;;;;;;1.73;75.08;93464.41;5063665;28;20557;-81
2021/12/16 12:39:36;;;;;;;13.10;12.03;;;;;;;1.78;75.22;93474.88;5069931;28;20200;-79
2021/12/16 12:42:02;;;;;;;13.67;12.67;;;;;;;1.79;74.86;93483.41;5073104;28;20192;-79
2021/12/16 12:44:28;;;;;;;16.23;14.83;;;;;;;1.80;74.63;93490.13;5090526;28;20189;-80
2021/12/16 12:46:54;;;;;;;14.77;13.60;;;;;;;1.61;75.30;93505.44;5090073;28;20187;-80
2021/12/16 12:49:25;;;;;;;13.93;12.77;;;;;;;1.67;76.07;93508.19;5088466;28;20216;-79
2021/12/16 12:52:00;;;;;;;16.37;15.07;;;;;;;1.84;77.34;93499.03;5087298;28;20219;-79
2021/12/16 12:54:29;;;;;;;14.00;12.90;;;;;;;1.80;75.56;93482.41;5070010;28;20173;-80
2021/12/16 12:56:58;;;;;;;14.40;13.30;;;;;;;1.75;76.26;93506.16;5071066;28;20178;-79
2021/12/16 12:59:38;;;;;;;14.30;13.20;;;;;;;1.67;76.33;93466.03;5091461;28;20180;-80
2021/12/16 13:02:36;;;;;;;15.43;14.23;;;;;;;1.96;76.63;93477.56;5089286;28;20239;-79
2021/12/16 13:05:07;;;;;;;14.47;13.23;;;;;;;1.87;75.58;93483.19;5078933;28;20393;-79
2021/12/16 13:07:55;;;;;;;15.77;14.37;;;;;;;1.89;75.55;93483.75;5092153;28;20223;-80
2021/12/16 13:10:42;;;;;;;16.00;14.60;;;;;;;1.82;76.85;93459.81;5092415;28;20269;-79
2021/12/16 13:13:42;;;;;;;16.23;14.87;;;;;;;1.59;78.87;93461.09;5079318;28;20224;-80
2021/12/16 13:16:20;;;;;;;15.90;14.60;;;;;;;1.52;80.05;93491.22;5070089;28;20221;-80
2021/12/16 13:24:58;;;;;;;15.70;14.30;;;;;;;1.30;79.58;93440.22;5069317;28;21531;-80
2021/12/16 13:27:39;;;;;;;16.87;15.23;;;;;;;1.44;80.64;93478.56;5074083;28;20231;-79
2021/12/16 13:32:47;;;;;;;16.27;14.87;;;;;;;1.37;79.43;93482.91;5089805;28;20236;-79
2021/12/16 13:37:54;;;;;;;15.40;14.10;;;;;;;1.16;78.80;93460.03;5090909;28;20232;-80
2021/12/16 13:40:29;;;;;;;15.87;14.53;;;;;;;1.31;78.26;93494.00;5091874;28;20203;-81
2021/12/16 13:43:02;;;;;;;17.27;14.87;;;;;;;1.14;78.30;93495.44;5089888;28;20223;-80
2021/12/16 13:45:42;;;;;;;18.40;16.20;;;;;;;0.97;79.21;93465.19;5091501;28;20177;-80
2021/12/16 14:03:41;;;;;;;18.07;15.70;;;;;;;0.95;81.34;93509.09;5068851;28;20250;-80
2021/12/16 14:06:17;;;;;;;18.03;16.33;;;;;;;0.96;82.36;93495.25;5068865;28;20185;-79
2021/12/16 14:08:47;;;;;;;19.97;17.97;;;;;;;0.86;81.79;93494.84;5070820;28;20296;-80
2021/12/16 14:14:49;;;;;;;18.17;16.30;;;;;;;1.01;82.38;93517.78;5069618;28;20267;-79
2021/12/16 14:17:30;;;;;;;19.53;17.73;;;;;;;0.82;83.41;93514.25;5068816;28;20237;-79
2021/12/16 14:23:25;;;;;;;18.83;17.07;;;;;;;0.79;84.13;93524.91;5068006;28;20263;-80
2021/12/16 14:47:55;;;;;;;19.87;17.77;;;;;;;0.65;85.58;93520.75;5087813;28;20224;-78
2021/12/16 14:50:24;;;;;;;19.63;17.63;;;;;;;0.64;84.45;93531.22;5088879;28;20219;-78
2021/12/16 14:52:49;;;;;;;19.73;17.73;;;;;;;0.61;84.49;93524.69;5088090;28;20284;-81
2021/12/16 14:55:18;;;;;;;19.27;16.40;;;;;;;0.45;84.87;93508.88;5086138;28;20185;-78
2021/12/16 14:57:48;;;;;;;20.50;16.87;;;;;;;0.63;84.39;93520.16;5087347;28;20236;-79
2021/12/16 15:00:47;;;;;;;18.73;17.03;;;;;;;0.11;84.08;93442.25;5087367;28;20211;-80
2021/12/16 15:03:26;;;;;;;20.03;17.97;;;;;;;0.36;84.06;93490.28;5079597;28;21042;-83
2021/12/16 15:05:55;;;;;;;21.13;19.13;;;;;;;0.56;85.72;93501.34;5087238;28;20184;-81
2021/12/16 15:08:47;;;;;;;19.80;17.77;;;;;;;0.50;84.68;93504.72;5087511;28;20240;-82
2021/12/16 15:11:25;;;;;;;20.93;18.73;;;;;;;0.08;85.43;93442.63;5087414;28;20306;-82
2021/12/16 15:13:56;;;;;;;22.33;19.93;;;;;;;0.27;85.32;93477.81;5088289;28;20231;-81
2021/12/16 15:38:18;;;;;;;20.07;17.97;;;;;;;0.62;82.56;93536.56;5088405;28;20292;-85
2021/12/16 15:40:58;;;;;;;23.17;19.03;;;;;;;0.52;82.64;93525.88;5088936;28;20198;-84